sensor_id;sensor_type;location;lat;lon;timestamp;pressure;altitude;pressure_sealevel;temperature;humidity
60246;BME280;46107;53.356;-1.524;2023-03-19T00:00:13;98175.17;;;3.22;76.49
60246;BME280;46107;53.356;-1.524;2023-03-19T00:02:41;98175.28;;;3.17;75.01
60246;BME280;46107;53.356;-1.524;2023-03-19T00:05:08;98172.12;;;3.10;75.88
60246;BME280;46107;53.356;-1.524;2023-03-19T00:07:36;98183.15;;;3.64;73.24
60246;BME280;46107;53.356;-1.524;2023-03-19T00:10:04;98186.96;;;3.28;75.74
60246;BME280;46107;53.356;-1.524;2023-03-19T00:12:32;98189.13;;;3.16;74.74
60246;BME280;46107;53.356;-1.524;2023-03-19T00:14:59;98200.75;;;3.27;75.18
60246;BME280;46107;53.356;-1.524;2023-03-19T00:17:27;98199.57;;;3.12;74.63
60246;BME280;46107;53.356;-1.524;2023-03-19T00:19:54;98205.33;;;2.81;76.87
60246;BME280;46107;53.356;-1.524;2023-03-19T00:22:22;98214.20;;;2.15;77.86
60246;BME280;46107;53.356;-1.524;2023-03-19T00:24:50;98215.53;;;2.32;79.66
60246;BME280;46107;53.356;-1.524;2023-03-19T00:27:17;98216.49;;;3.10;73.96
60246;BME280;46107;53.356;-1.524;2023-03-19T00:29:44;98218.98;;;3.05;74.53
60246;BME280;46107;53.356;-1.524;2023-03-19T00:32:13;98219.62;;;1.65;80.48
60246;BME280;46107;53.356;-1.524;2023-03-19T00:34:40;98228.88;;;2.91;76.60
60246;BME280;46107;53.356;-1.524;2023-03-19T00:37:08;98239.88;;;3.08;77.04
60246;BME280;46107;53.356;-1.524;2023-03-19T00:39:35;98229.84;;;2.77;77.73
60246;BME280;46107;53.356;-1.524;2023-03-19T00:42:03;98230.62;;;2.75;76.26
60246;BME280;46107;53.356;-1.524;2023-03-19T00:44:31;98228.46;;;2.40;79.05
60246;BME280;46107;53.356;-1.524;2023-03-19T00:46:59;98230.55;;;2.96;74.86
60246;BME280;46107;53.356;-1.524;2023-03-19T00:49:26;98248.41;;;2.86;76.93
60246;BME280;46107;53.356;-1.524;2023-03-19T00:51:54;98253.24;;;3.12;74.74
60246;BME280;46107;53.356;-1.524;2023-03-19T00:54:21;98249.01;;;2.62;74.85
60246;BME280;46107;53.356;-1.524;2023-03-19T00:56:49;98243.65;;;2.27;76.03
60246;BME280;46107;53.356;-1.524;2023-03-19T00:59:16;98241.42;;;3.26;75.38
60246;BME280;46107;53.356;-1.524;2023-03-19T01:01:44;98251.35;;;2.83;74.77
60246;BME280;46107;53.356;-1.524;2023-03-19T01:04:12;98255.83;;;2.31;76.89
60246;BME280;46107;53.356;-1.524;2023-03-19T01:06:39;98256.20;;;3.10;74.49
60246;BME280;46107;53.356;-1.524;2023-03-19T01:09:06;98255.09;;;3.00;75.73
60246;BME280;46107;53.356;-1.524;2023-03-19T01:11:34;98252.81;;;2.88;75.57
60246;BME280;46107;53.356;-1.524;2023-03-19T01:14:02;98263.34;;;4.11;71.40
60246;BME280;46107;53.356;-1.524;2023-03-19T01:16:29;98282.10;;;3.28;74.79
60246;BME280;46107;53.356;-1.524;2023-03-19T01:18:57;98276.21;;;3.30;75.11
60246;BME280;46107;53.356;-1.524;2023-03-19T01:21:25;98276.39;;;3.55;72.51
60246;BME280;46107;53.356;-1.524;2023-03-19T01:23:52;98282.78;;;3.09;75.38
60246;BME280;46107;53.356;-1.524;2023-03-19T01:26:20;98282.92;;;3.60;73.44
60246;BME280;46107;53.356;-1.524;2023-03-19T01:28:47;98272.40;;;4.57;69.57
60246;BME280;46107;53.356;-1.524;2023-03-19T01:31:15;98281.79;;;4.40;70.44
60246;BME280;46107;53.356;-1.524;2023-03-19T01:33:42;98288.59;;;4.05;71.97
60246;BME280;46107;53.356;-1.524;2023-03-19T01:36:15;98271.39;;;4.54;68.29
60246;BME280;46107;53.356;-1.524;2023-03-19T01:38:42;98279.64;;;4.03;68.48
60246;BME280;46107;53.356;-1.524;2023-03-19T01:41:11;98271.42;;;2.74;71.15
60246;BME280;46107;53.356;-1.524;2023-03-19T01:43:39;98268.00;;;3.26;71.72
60246;BME280;46107;53.356;-1.524;2023-03-19T01:46:11;98277.86;;;3.21;71.51
60246;BME280;46107;53.356;-1.524;2023-03-19T01:48:43;98281.52;;;3.64;70.11
60246;BME280;46107;53.356;-1.524;2023-03-19T01:51:14;98285.96;;;3.90;70.17
60246;BME280;46107;53.356;-1.524;2023-03-19T01:53:46;98279.41;;;3.15;71.33
60246;BME280;46107;53.356;-1.524;2023-03-19T01:56:19;98269.00;;;4.53;68.78
60246;BME280;46107;53.356;-1.524;2023-03-19T01:58:51;98281.56;;;3.23;71.63
60246;BME280;46107;53.356;-1.524;2023-03-19T02:01:19;98277.03;;;3.92;70.67
60246;BME280;46107;53.356;-1.524;2023-03-19T02:03:49;98270.66;;;3.95;69.97
60246;BME280;46107;53.356;-1.524;2023-03-19T02:06:19;98266.29;;;3.73;70.84
60246;BME280;46107;53.356;-1.524;2023-03-19T02:08:48;98273.37;;;3.13;71.71
60246;BME280;46107;53.356;-1.524;2023-03-19T02:11:16;98269.09;;;4.70;67.82
60246;BME280;46107;53.356;-1.524;2023-03-19T02:13:44;98276.90;;;3.97;68.06
60246;BME280;46107;53.356;-1.524;2023-03-19T02:16:12;98278.94;;;3.36;72.14
60246;BME280;46107;53.356;-1.524;2023-03-19T02:18:41;98286.12;;;2.54;75.15
60246;BME280;46107;53.356;-1.524;2023-03-19T02:21:12;98287.90;;;3.44;73.64
60246;BME280;46107;53.356;-1.524;2023-03-19T02:23:46;98289.00;;;3.63;74.62
60246;BME280;46107;53.356;-1.524;2023-03-19T02:26:19;98286.40;;;3.74;72.23
60246;BME280;46107;53.356;-1.524;2023-03-19T02:28:49;98283.80;;;4.27;73.76
60246;BME280;46107;53.356;-1.524;2023-03-19T02:31:17;98279.26;;;2.86;75.68
60246;BME280;46107;53.356;-1.524;2023-03-19T02:33:54;98282.05;;;3.57;74.75
60246;BME280;46107;53.356;-1.524;2023-03-19T02:36:22;98276.45;;;3.47;74.25
60246;BME280;46107;53.356;-1.524;2023-03-19T02:38:51;98274.17;;;4.29;73.35
60246;BME280;46107;53.356;-1.524;2023-03-19T02:41:20;98287.28;;;3.64;71.75
60246;BME280;46107;53.356;-1.524;2023-03-19T02:43:48;98289.95;;;3.36;74.03
60246;BME280;46107;53.356;-1.524;2023-03-19T02:46:15;98287.83;;;3.14;74.36
60246;BME280;46107;53.356;-1.524;2023-03-19T02:48:43;98292.26;;;3.14;74.57
60246;BME280;46107;53.356;-1.524;2023-03-19T02:51:16;98296.88;;;2.35;79.05
60246;BME280;46107;53.356;-1.524;2023-03-19T02:53:43;98292.68;;;2.36;77.55
60246;BME280;46107;53.356;-1.524;2023-03-19T02:56:12;98300.54;;;2.78;79.70
60246;BME280;46107;53.356;-1.524;2023-03-19T02:58:40;98298.81;;;3.31;76.29
60246;BME280;46107;53.356;-1.524;2023-03-19T03:01:07;98298.98;;;3.20;77.99
60246;BME280;46107;53.356;-1.524;2023-03-19T03:03:35;98303.89;;;2.61;76.92
60246;BME280;46107;53.356;-1.524;2023-03-19T03:06:03;98307.62;;;2.91;77.74
60246;BME280;46107;53.356;-1.524;2023-03-19T03:08:31;98309.71;;;2.16;80.28
60246;BME280;46107;53.356;-1.524;2023-03-19T03:10:59;98314.69;;;2.21;80.29
60246;BME280;46107;53.356;-1.524;2023-03-19T03:13:26;98311.44;;;2.55;79.30
60246;BME280;46107;53.356;-1.524;2023-03-19T03:15:54;98322.26;;;2.23;80.69
60246;BME280;46107;53.356;-1.524;2023-03-19T03:18:21;98319.04;;;3.39;77.25
60246;BME280;46107;53.356;-1.524;2023-03-19T03:20:49;98326.42;;;3.11;78.56
60246;BME280;46107;53.356;-1.524;2023-03-19T03:23:17;98320.29;;;3.81;74.18
60246;BME280;46107;53.356;-1.524;2023-03-19T03:25:48;98322.26;;;3.19;75.43
60246;BME280;46107;53.356;-1.524;2023-03-19T03:28:16;98327.60;;;3.75;75.15
60246;BME280;46107;53.356;-1.524;2023-03-19T03:30:44;98329.81;;;3.12;75.74
60246;BME280;46107;53.356;-1.524;2023-03-19T03:33:12;98337.59;;;3.95;71.88
60246;BME280;46107;53.356;-1.524;2023-03-19T03:35:40;98330.64;;;3.15;75.51
60246;BME280;46107;53.356;-1.524;2023-03-19T03:38:07;98332.69;;;3.09;77.97
60246;BME280;46107;53.356;-1.524;2023-03-19T03:40:35;98339.62;;;3.00;77.54
60246;BME280;46107;53.356;-1.524;2023-03-19T03:43:03;98336.95;;;3.18;77.55
60246;BME280;46107;53.356;-1.524;2023-03-19T03:45:30;98343.81;;;1.92;83.34
60246;BME280;46107;53.356;-1.524;2023-03-19T03:47:58;98343.27;;;2.33;81.08
60246;BME280;46107;53.356;-1.524;2023-03-19T03:50:26;98345.54;;;1.87;84.45
60246;BME280;46107;53.356;-1.524;2023-03-19T03:52:53;98342.65;;;2.78;79.83
60246;BME280;46107;53.356;-1.524;2023-03-19T03:55:22;98340.06;;;2.05;80.95
60246;BME280;46107;53.356;-1.524;2023-03-19T03:57:50;98341.46;;;3.10;80.15
60246;BME280;46107;53.356;-1.524;2023-03-19T04:00:18;98346.33;;;2.41;80.99
60246;BME280;46107;53.356;-1.524;2023-03-19T04:02:45;98345.41;;;2.44;83.17
60246;BME280;46107;53.356;-1.524;2023-03-19T04:05:13;98338.89;;;3.33;78.55
60246;BME280;46107;53.356;-1.524;2023-03-19T04:07:41;98345.75;;;3.05;79.86
60246;BME280;46107;53.356;-1.524;2023-03-19T04:10:11;98348.83;;;2.92;81.07
60246;BME280;46107;53.356;-1.524;2023-03-19T04:12:39;98354.07;;;2.43;82.99
60246;BME280;46107;53.356;-1.524;2023-03-19T04:15:09;98357.09;;;2.22;84.85
60246;BME280;46107;53.356;-1.524;2023-03-19T04:17:38;98351.50;;;2.09;85.30
60246;BME280;46107;53.356;-1.524;2023-03-19T04:20:07;98360.27;;;1.95;85.79
60246;BME280;46107;53.356;-1.524;2023-03-19T04:22:35;98360.25;;;2.90;81.66
60246;BME280;46107;53.356;-1.524;2023-03-19T04:25:03;98361.64;;;3.66;78.88
60246;BME280;46107;53.356;-1.524;2023-03-19T04:27:31;98375.04;;;2.36;82.46
60246;BME280;46107;53.356;-1.524;2023-03-19T04:29:58;98375.60;;;1.88;83.70
60246;BME280;46107;53.356;-1.524;2023-03-19T04:32:26;98376.23;;;2.78;80.59
60246;BME280;46107;53.356;-1.524;2023-03-19T04:34:53;98372.21;;;3.60;78.82
60246;BME280;46107;53.356;-1.524;2023-03-19T04:37:21;98378.41;;;3.16;81.45
60246;BME280;46107;53.356;-1.524;2023-03-19T04:39:49;98371.51;;;2.57;78.94
60246;BME280;46107;53.356;-1.524;2023-03-19T04:42:17;98378.72;;;2.14;81.55
60246;BME280;46107;53.356;-1.524;2023-03-19T04:44:45;98384.31;;;2.65;79.81
60246;BME280;46107;53.356;-1.524;2023-03-19T04:47:12;98383.92;;;3.94;77.43
60246;BME280;46107;53.356;-1.524;2023-03-19T04:49:40;98388.17;;;3.27;77.96
60246;BME280;46107;53.356;-1.524;2023-03-19T04:52:08;98395.36;;;2.29;81.72
60246;BME280;46107;53.356;-1.524;2023-03-19T04:54:35;98399.19;;;1.65;86.11
60246;BME280;46107;53.356;-1.524;2023-03-19T04:57:03;98405.00;;;3.01;81.56
60246;BME280;46107;53.356;-1.524;2023-03-19T04:59:30;98402.17;;;1.89;85.09
60246;BME280;46107;53.356;-1.524;2023-03-19T05:01:58;98406.45;;;2.24;84.23
60246;BME280;46107;53.356;-1.524;2023-03-19T05:04:25;98410.36;;;1.97;87.79
60246;BME280;46107;53.356;-1.524;2023-03-19T05:06:53;98413.19;;;2.71;85.20
60246;BME280;46107;53.356;-1.524;2023-03-19T05:09:20;98411.07;;;2.16;86.15
60246;BME280;46107;53.356;-1.524;2023-03-19T05:11:48;98414.07;;;2.79;81.31
60246;BME280;46107;53.356;-1.524;2023-03-19T05:14:17;98413.33;;;2.53;83.45
60246;BME280;46107;53.356;-1.524;2023-03-19T05:16:44;98409.64;;;3.14;81.66
60246;BME280;46107;53.356;-1.524;2023-03-19T05:19:11;98418.10;;;3.18;80.84
60246;BME280;46107;53.356;-1.524;2023-03-19T05:21:39;98420.19;;;2.85;82.53
60246;BME280;46107;53.356;-1.524;2023-03-19T05:24:07;98416.40;;;2.32;84.19
60246;BME280;46107;53.356;-1.524;2023-03-19T05:26:35;98423.77;;;3.20;81.52
60246;BME280;46107;53.356;-1.524;2023-03-19T05:29:03;98420.47;;;3.30;80.85
60246;BME280;46107;53.356;-1.524;2023-03-19T05:31:30;98423.16;;;2.93;80.31
60246;BME280;46107;53.356;-1.524;2023-03-19T05:33:58;98427.36;;;2.79;82.43
60246;BME280;46107;53.356;-1.524;2023-03-19T05:36:26;98431.96;;;2.59;83.18
60246;BME280;46107;53.356;-1.524;2023-03-19T05:38:54;98441.54;;;2.96;82.93
60246;BME280;46107;53.356;-1.524;2023-03-19T05:41:21;98440.17;;;3.22;81.06
60246;BME280;46107;53.356;-1.524;2023-03-19T05:43:48;98442.64;;;2.81;84.59
60246;BME280;46107;53.356;-1.524;2023-03-19T05:46:16;98448.33;;;2.30;87.51
60246;BME280;46107;53.356;-1.524;2023-03-19T05:48:43;98451.05;;;2.16;87.05
60246;BME280;46107;53.356;-1.524;2023-03-19T05:51:16;98454.37;;;3.18;81.47
60246;BME280;46107;53.356;-1.524;2023-03-19T05:53:44;98453.75;;;2.11;84.48
60246;BME280;46107;53.356;-1.524;2023-03-19T05:56:11;98457.75;;;2.72;82.99
60246;BME280;46107;53.356;-1.524;2023-03-19T05:58:39;98457.82;;;3.01;81.38
60246;BME280;46107;53.356;-1.524;2023-03-19T06:01:07;98461.50;;;3.55;79.65
60246;BME280;46107;53.356;-1.524;2023-03-19T06:03:35;98460.06;;;2.79;80.26
60246;BME280;46107;53.356;-1.524;2023-03-19T06:06:02;98467.37;;;2.70;81.37
60246;BME280;46107;53.356;-1.524;2023-03-19T06:08:30;98465.38;;;2.42;82.92
60246;BME280;46107;53.356;-1.524;2023-03-19T06:10:58;98467.78;;;3.04;82.06
60246;BME280;46107;53.356;-1.524;2023-03-19T06:13:26;98471.49;;;2.64;82.71
60246;BME280;46107;53.356;-1.524;2023-03-19T06:15:53;98476.48;;;3.05;80.68
60246;BME280;46107;53.356;-1.524;2023-03-19T06:18:21;98484.73;;;3.62;77.90
60246;BME280;46107;53.356;-1.524;2023-03-19T06:20:48;98487.65;;;4.10;76.57
60246;BME280;46107;53.356;-1.524;2023-03-19T06:23:16;98494.72;;;3.46;76.32
60246;BME280;46107;53.356;-1.524;2023-03-19T06:25:43;98498.55;;;3.46;75.80
60246;BME280;46107;53.356;-1.524;2023-03-19T06:28:16;98500.36;;;3.25;77.35
60246;BME280;46107;53.356;-1.524;2023-03-19T06:30:43;98508.95;;;2.99;79.17
60246;BME280;46107;53.356;-1.524;2023-03-19T06:33:15;98511.44;;;2.56;79.58
60246;BME280;46107;53.356;-1.524;2023-03-19T06:35:43;98513.64;;;2.43;80.69
60246;BME280;46107;53.356;-1.524;2023-03-19T06:38:12;98513.29;;;2.42;84.27
60246;BME280;46107;53.356;-1.524;2023-03-19T06:40:40;98512.46;;;2.73;84.11
60246;BME280;46107;53.356;-1.524;2023-03-19T06:43:07;98509.16;;;3.14;80.92
60246;BME280;46107;53.356;-1.524;2023-03-19T06:45:34;98519.21;;;3.52;79.11
60246;BME280;46107;53.356;-1.524;2023-03-19T06:48:01;98515.87;;;3.22;82.09
60246;BME280;46107;53.356;-1.524;2023-03-19T06:50:29;98521.58;;;4.24;77.35
60246;BME280;46107;53.356;-1.524;2023-03-19T06:52:56;98522.36;;;3.65;77.39
60246;BME280;46107;53.356;-1.524;2023-03-19T06:55:24;98525.77;;;4.40;77.23
60246;BME280;46107;53.356;-1.524;2023-03-19T06:57:52;98530.29;;;3.70;79.38
60246;BME280;46107;53.356;-1.524;2023-03-19T07:00:21;98536.34;;;3.56;81.03
60246;BME280;46107;53.356;-1.524;2023-03-19T07:02:48;98538.70;;;4.21;76.91
60246;BME280;46107;53.356;-1.524;2023-03-19T07:05:16;98546.15;;;4.11;76.67
60246;BME280;46107;53.356;-1.524;2023-03-19T07:07:43;98548.93;;;4.21;74.80
60246;BME280;46107;53.356;-1.524;2023-03-19T07:10:11;98553.19;;;3.27;81.38
60246;BME280;46107;53.356;-1.524;2023-03-19T07:12:38;98560.76;;;3.04;80.68
60246;BME280;46107;53.356;-1.524;2023-03-19T07:15:07;98564.14;;;3.33;80.24
60246;BME280;46107;53.356;-1.524;2023-03-19T07:17:34;98562.21;;;3.93;77.95
60246;BME280;46107;53.356;-1.524;2023-03-19T07:20:02;98561.85;;;4.46;75.08
60246;BME280;46107;53.356;-1.524;2023-03-19T07:22:30;98570.56;;;3.32;78.54
60246;BME280;46107;53.356;-1.524;2023-03-19T07:24:58;98572.14;;;3.93;79.15
60246;BME280;46107;53.356;-1.524;2023-03-19T07:27:25;98580.81;;;4.09;76.20
60246;BME280;46107;53.356;-1.524;2023-03-19T07:29:53;98580.66;;;3.70;80.23
60246;BME280;46107;53.356;-1.524;2023-03-19T07:32:22;98579.08;;;4.03;77.47
60246;BME280;46107;53.356;-1.524;2023-03-19T07:34:50;98577.48;;;5.01;74.57
60246;BME280;46107;53.356;-1.524;2023-03-19T07:37:17;98581.16;;;5.54;70.93
60246;BME280;46107;53.356;-1.524;2023-03-19T07:39:44;98584.63;;;5.76;69.53
60246;BME280;46107;53.356;-1.524;2023-03-19T07:42:13;98583.55;;;5.33;72.39
60246;BME280;46107;53.356;-1.524;2023-03-19T07:44:40;98587.94;;;4.82;70.78
60246;BME280;46107;53.356;-1.524;2023-03-19T07:47:08;98589.07;;;4.88;71.21
60246;BME280;46107;53.356;-1.524;2023-03-19T07:49:36;98592.14;;;4.67;72.21
60246;BME280;46107;53.356;-1.524;2023-03-19T07:52:04;98596.05;;;4.42;71.25
60246;BME280;46107;53.356;-1.524;2023-03-19T07:54:32;98604.17;;;5.63;70.40
60246;BME280;46107;53.356;-1.524;2023-03-19T07:57:01;98610.23;;;5.79;68.48
60246;BME280;46107;53.356;-1.524;2023-03-19T07:59:29;98613.03;;;5.11;70.74
60246;BME280;46107;53.356;-1.524;2023-03-19T08:01:56;98616.92;;;5.23;72.18
60246;BME280;46107;53.356;-1.524;2023-03-19T08:04:24;98617.84;;;6.15;71.49
60246;BME280;46107;53.356;-1.524;2023-03-19T08:06:52;98620.40;;;6.13;66.00
60246;BME280;46107;53.356;-1.524;2023-03-19T08:09:20;98626.50;;;5.80;69.40
60246;BME280;46107;53.356;-1.524;2023-03-19T08:11:47;98634.86;;;6.42;65.65
60246;BME280;46107;53.356;-1.524;2023-03-19T08:14:15;98639.70;;;6.22;67.22
60246;BME280;46107;53.356;-1.524;2023-03-19T08:16:42;98651.20;;;6.13;66.76
60246;BME280;46107;53.356;-1.524;2023-03-19T08:19:11;98645.45;;;7.05;64.11
60246;BME280;46107;53.356;-1.524;2023-03-19T08:21:39;98648.25;;;6.10;67.80
60246;BME280;46107;53.356;-1.524;2023-03-19T08:24:07;98646.93;;;5.92;68.84
60246;BME280;46107;53.356;-1.524;2023-03-19T08:26:34;98649.83;;;6.17;69.18
60246;BME280;46107;53.356;-1.524;2023-03-19T08:29:02;98642.62;;;6.53;66.96
60246;BME280;46107;53.356;-1.524;2023-03-19T08:31:30;98634.21;;;7.05;62.61
60246;BME280;46107;53.356;-1.524;2023-03-19T08:33:57;98642.36;;;6.12;64.23
60246;BME280;46107;53.356;-1.524;2023-03-19T08:36:25;98651.73;;;5.64;63.24
60246;BME280;46107;53.356;-1.524;2023-03-19T08:38:52;98661.43;;;6.38;63.35
60246;BME280;46107;53.356;-1.524;2023-03-19T08:41:20;98661.03;;;5.98;66.92
60246;BME280;46107;53.356;-1.524;2023-03-19T08:43:48;98663.32;;;6.60;62.24
60246;BME280;46107;53.356;-1.524;2023-03-19T08:46:16;98663.80;;;6.55;65.75
60246;BME280;46107;53.356;-1.524;2023-03-19T08:48:44;98667.22;;;5.59;64.45
60246;BME280;46107;53.356;-1.524;2023-03-19T08:51:12;98673.90;;;5.27;64.61
60246;BME280;46107;53.356;-1.524;2023-03-19T08:53:39;98678.01;;;6.13;62.27
60246;BME280;46107;53.356;-1.524;2023-03-19T08:56:07;98680.99;;;5.98;63.56
60246;BME280;46107;53.356;-1.524;2023-03-19T08:58:34;98682.93;;;6.18;67.14
60246;BME280;46107;53.356;-1.524;2023-03-19T09:01:03;98679.30;;;7.32;61.16
60246;BME280;46107;53.356;-1.524;2023-03-19T09:03:31;98687.53;;;7.15;62.14
60246;BME280;46107;53.356;-1.524;2023-03-19T09:05:59;98689.57;;;6.90;60.91
60246;BME280;46107;53.356;-1.524;2023-03-19T09:08:28;98679.76;;;7.29;57.71
60246;BME280;46107;53.356;-1.524;2023-03-19T09:10:57;98685.11;;;7.08;57.36
60246;BME280;46107;53.356;-1.524;2023-03-19T09:13:25;98689.65;;;7.13;55.31
60246;BME280;46107;53.356;-1.524;2023-03-19T09:15:52;98692.48;;;7.08;57.59
60246;BME280;46107;53.356;-1.524;2023-03-19T09:18:20;98708.19;;;6.82;58.68
60246;BME280;46107;53.356;-1.524;2023-03-19T09:20:47;98704.97;;;6.47;60.82
60246;BME280;46107;53.356;-1.524;2023-03-19T09:23:14;98701.09;;;6.32;63.38
60246;BME280;46107;53.356;-1.524;2023-03-19T09:25:42;98696.13;;;7.64;61.18
60246;BME280;46107;53.356;-1.524;2023-03-19T09:28:09;98705.34;;;7.56;58.22
60246;BME280;46107;53.356;-1.524;2023-03-19T09:30:37;98718.70;;;7.20;57.66
60246;BME280;46107;53.356;-1.524;2023-03-19T09:33:06;98722.51;;;6.92;58.86
60246;BME280;46107;53.356;-1.524;2023-03-19T09:35:34;98713.08;;;7.71;59.86
60246;BME280;46107;53.356;-1.524;2023-03-19T09:38:01;98708.89;;;7.73;59.92
60246;BME280;46107;53.356;-1.524;2023-03-19T09:40:32;98706.80;;;7.77;59.09
60246;BME280;46107;53.356;-1.524;2023-03-19T09:43:08;98712.91;;;8.86;53.53
60246;BME280;46107;53.356;-1.524;2023-03-19T09:45:44;98720.63;;;8.27;54.43
60246;BME280;46107;53.356;-1.524;2023-03-19T09:48:17;98722.49;;;8.35;55.50
60246;BME280;46107;53.356;-1.524;2023-03-19T09:50:46;98721.87;;;9.21;54.53
60246;BME280;46107;53.356;-1.524;2023-03-19T09:53:21;98719.31;;;7.39;53.63
60246;BME280;46107;53.356;-1.524;2023-03-19T09:55:52;98723.58;;;7.67;57.00
60246;BME280;46107;53.356;-1.524;2023-03-19T09:58:21;98723.92;;;8.37;55.25
60246;BME280;46107;53.356;-1.524;2023-03-19T10:00:51;98731.22;;;8.43;53.74
60246;BME280;46107;53.356;-1.524;2023-03-19T10:03:30;98731.20;;;8.13;54.24
60246;BME280;46107;53.356;-1.524;2023-03-19T10:06:12;98736.88;;;7.35;55.15
60246;BME280;46107;53.356;-1.524;2023-03-19T10:08:53;98744.49;;;7.44;56.30
60246;BME280;46107;53.356;-1.524;2023-03-19T10:11:34;98750.45;;;7.71;56.74
60246;BME280;46107;53.356;-1.524;2023-03-19T10:14:13;98749.53;;;7.53;54.15
60246;BME280;46107;53.356;-1.524;2023-03-19T10:16:47;98745.65;;;8.21;55.35
60246;BME280;46107;53.356;-1.524;2023-03-19T10:19:20;98751.00;;;7.82;54.04
60246;BME280;46107;53.356;-1.524;2023-03-19T10:21:51;98753.57;;;8.27;54.13
60246;BME280;46107;53.356;-1.524;2023-03-19T10:24:23;98759.96;;;8.01;52.95
60246;BME280;46107;53.356;-1.524;2023-03-19T10:26:58;98754.93;;;7.94;54.09
60246;BME280;46107;53.356;-1.524;2023-03-19T10:29:26;98751.08;;;9.13;50.19
60246;BME280;46107;53.356;-1.524;2023-03-19T10:31:59;98754.66;;;9.12;51.08
60246;BME280;46107;53.356;-1.524;2023-03-19T10:34:30;98761.79;;;8.88;52.25
60246;BME280;46107;53.356;-1.524;2023-03-19T10:37:01;98771.86;;;9.30;49.38
60246;BME280;46107;53.356;-1.524;2023-03-19T10:39:32;98781.19;;;8.53;49.01
60246;BME280;46107;53.356;-1.524;2023-03-19T10:42:12;98786.68;;;10.03;49.22
60246;BME280;46107;53.356;-1.524;2023-03-19T10:44:48;98780.80;;;8.96;48.07
60246;BME280;46107;53.356;-1.524;2023-03-19T10:47:18;98785.56;;;8.20;49.60
60246;BME280;46107;53.356;-1.524;2023-03-19T10:49:46;98788.97;;;8.52;49.63
60246;BME280;46107;53.356;-1.524;2023-03-19T10:52:19;98796.69;;;9.07;50.10
60246;BME280;46107;53.356;-1.524;2023-03-19T10:54:53;98794.77;;;9.25;49.07
60246;BME280;46107;53.356;-1.524;2023-03-19T10:57:25;98796.04;;;9.51;46.67
60246;BME280;46107;53.356;-1.524;2023-03-19T10:59:53;98794.41;;;9.84;46.62
60246;BME280;46107;53.356;-1.524;2023-03-19T11:02:23;98791.12;;;9.95;47.92
60246;BME280;46107;53.356;-1.524;2023-03-19T11:05:06;98788.08;;;10.70;46.61
60246;BME280;46107;53.356;-1.524;2023-03-19T11:07:35;98797.20;;;9.09;46.75
60246;BME280;46107;53.356;-1.524;2023-03-19T11:10:03;98799.40;;;9.34;47.00
60246;BME280;46107;53.356;-1.524;2023-03-19T11:12:33;98795.87;;;8.45;50.77
60246;BME280;46107;53.356;-1.524;2023-03-19T11:15:01;98788.99;;;9.23;48.07
60246;BME280;46107;53.356;-1.524;2023-03-19T11:17:37;98793.69;;;9.37;49.24
60246;BME280;46107;53.356;-1.524;2023-03-19T11:20:21;98800.96;;;9.97;47.52
60246;BME280;46107;53.356;-1.524;2023-03-19T11:22:49;98809.68;;;9.73;49.14
60246;BME280;46107;53.356;-1.524;2023-03-19T11:25:24;98809.07;;;8.63;47.99
60246;BME280;46107;53.356;-1.524;2023-03-19T11:27:58;98798.75;;;9.09;48.17
60246;BME280;46107;53.356;-1.524;2023-03-19T11:30:28;98795.41;;;9.31;48.87
60246;BME280;46107;53.356;-1.524;2023-03-19T11:33:11;98797.25;;;9.54;48.40
60246;BME280;46107;53.356;-1.524;2023-03-19T11:35:45;98793.67;;;10.33;44.19
60246;BME280;46107;53.356;-1.524;2023-03-19T11:38:23;98793.89;;;8.69;47.18
60246;BME280;46107;53.356;-1.524;2023-03-19T11:41:02;98790.13;;;8.58;46.88
60246;BME280;46107;53.356;-1.524;2023-03-19T11:43:39;98790.12;;;9.82;45.56
60246;BME280;46107;53.356;-1.524;2023-03-19T11:46:19;98786.12;;;10.13;44.79
60246;BME280;46107;53.356;-1.524;2023-03-19T11:49:08;98794.86;;;8.72;45.09
60246;BME280;46107;53.356;-1.524;2023-03-19T11:51:44;98792.33;;;8.55;47.84
60246;BME280;46107;53.356;-1.524;2023-03-19T11:54:21;98791.47;;;9.59;47.51
60246;BME280;46107;53.356;-1.524;2023-03-19T11:56:55;98794.68;;;9.02;46.22
60246;BME280;46107;53.356;-1.524;2023-03-19T11:59:34;98800.21;;;9.10;44.87
60246;BME280;46107;53.356;-1.524;2023-03-19T12:02:21;98801.77;;;9.48;45.84
60246;BME280;46107;53.356;-1.524;2023-03-19T12:05:04;98799.64;;;9.64;45.16
60246;BME280;46107;53.356;-1.524;2023-03-19T12:07:41;98801.12;;;8.20;48.66
60246;BME280;46107;53.356;-1.524;2023-03-19T12:10:28;98801.41;;;9.59;45.94
60246;BME280;46107;53.356;-1.524;2023-03-19T12:13:06;98799.26;;;9.30;46.85
60246;BME280;46107;53.356;-1.524;2023-03-19T12:15:46;98798.47;;;8.94;48.52
60246;BME280;46107;53.356;-1.524;2023-03-19T12:18:35;98801.24;;;8.11;46.64
60246;BME280;46107;53.356;-1.524;2023-03-19T12:21:10;98795.13;;;8.68;46.41
60246;BME280;46107;53.356;-1.524;2023-03-19T12:23:48;98794.03;;;9.28;45.83
60246;BME280;46107;53.356;-1.524;2023-03-19T12:26:27;98796.24;;;10.16;44.27
60246;BME280;46107;53.356;-1.524;2023-03-19T12:29:05;98800.18;;;9.25;46.52
60246;BME280;46107;53.356;-1.524;2023-03-19T12:31:49;98794.78;;;9.19;46.47
60246;BME280;46107;53.356;-1.524;2023-03-19T12:34:27;98802.02;;;8.94;45.83
60246;BME280;46107;53.356;-1.524;2023-03-19T12:37:10;98805.59;;;9.70;46.34
60246;BME280;46107;53.356;-1.524;2023-03-19T12:39:45;98803.63;;;9.99;47.07
60246;BME280;46107;53.356;-1.524;2023-03-19T12:42:19;98808.52;;;9.42;47.81
60246;BME280;46107;53.356;-1.524;2023-03-19T12:44:51;98814.63;;;10.20;48.31
60246;BME280;46107;53.356;-1.524;2023-03-19T12:47:23;98814.79;;;9.94;47.06
60246;BME280;46107;53.356;-1.524;2023-03-19T12:49:55;98814.58;;;8.45;51.14
60246;BME280;46107;53.356;-1.524;2023-03-19T12:52:30;98815.05;;;9.96;50.27
60246;BME280;46107;53.356;-1.524;2023-03-19T12:55:05;98819.74;;;9.22;49.51
60246;BME280;46107;53.356;-1.524;2023-03-19T12:57:44;98826.13;;;9.33;47.36
60246;BME280;46107;53.356;-1.524;2023-03-19T13:00:18;98824.59;;;9.41;46.46
60246;BME280;46107;53.356;-1.524;2023-03-19T13:02:54;98826.14;;;8.80;46.92
60246;BME280;46107;53.356;-1.524;2023-03-19T13:05:31;98827.85;;;10.09;44.37
60246;BME280;46107;53.356;-1.524;2023-03-19T13:08:09;98825.67;;;10.03;43.88
60246;BME280;46107;53.356;-1.524;2023-03-19T13:10:39;98822.85;;;10.39;45.15
60246;BME280;46107;53.356;-1.524;2023-03-19T13:13:21;98828.06;;;9.68;46.70